createdAt,value
2023-01-17T00:01:10.067Z,97083.89
2023-01-17T00:03:54.601Z,97084.00
2023-01-17T00:06:43.068Z,97088.81
2023-01-17T00:09:32.741Z,97094.12
2023-01-17T00:12:05.441Z,97092.96
2023-01-17T00:14:36.454Z,97091.86
2023-01-17T00:17:07.184Z,97095.69
2023-01-17T00:20:00.539Z,97096.80
2023-01-17T00:22:49.970Z,97097.18
2023-01-17T00:25:41.303Z,97099.61
2023-01-17T00:28:10.680Z,97097.79
2023-01-17T00:30:39.928Z,97102.65
2023-01-17T00:33:09.454Z,97111.41
2023-01-17T00:35:39.189Z,97108.27
2023-01-17T00:38:17.904Z,97113.56
2023-01-17T00:40:48.691Z,97118.91
2023-01-17T00:43:38.313Z,97120.27
2023-01-17T00:46:27.189Z,97121.96
2023-01-17T00:49:15.601Z,97126.95
2023-01-17T00:52:03.441Z,97129.88
2023-01-17T00:54:50.038Z,97127.94
2023-01-17T00:57:37.871Z,97127.55
2023-01-17T01:00:25.597Z,97129.23
2023-01-17T01:03:12.249Z,97128.58
2023-01-17T01:06:00.049Z,97129.83
2023-01-17T01:08:48.037Z,97131.99
2023-01-17T01:11:38.249Z,97135.52
2023-01-17T01:14:28.838Z,97141.01
2023-01-17T01:17:17.278Z,97142.66
2023-01-17T01:20:05.755Z,97140.83
2023-01-17T01:22:53.820Z,97139.86
2023-01-17T01:25:41.643Z,97147.60
2023-01-17T01:28:29.974Z,97147.61
2023-01-17T01:31:19.489Z,97144.06
2023-01-17T01:33:51.133Z,97147.21
2023-01-17T01:36:21.941Z,97151.30
2023-01-17T01:38:54.452Z,97150.91
2023-01-17T01:41:25.090Z,97151.25
2023-01-17T01:43:56.943Z,97152.89
2023-01-17T01:46:31.473Z,97152.46
2023-01-17T01:49:05.572Z,97152.08
2023-01-17T01:51:40.736Z,97152.70
2023-01-17T01:54:16.500Z,97151.52
2023-01-17T01:56:48.856Z,97153.96
2023-01-17T01:59:22.327Z,97153.85
2023-01-17T02:01:56.276Z,97158.50
2023-01-17T02:04:29.132Z,97160.98
2023-01-17T02:07:06.803Z,97166.06
2023-01-17T02:09:37.857Z,97170.66
2023-01-17T02:12:09.436Z,97169.51
2023-01-17T02:14:40.124Z,97179.88
2023-01-17T02:17:20.826Z,97189.73
2023-01-17T02:20:22.331Z,97191.67
2023-01-17T02:23:41.066Z,97192.03
2023-01-17T02:26:43.776Z,97192.17
2023-01-17T02:30:00.098Z,97194.36
2023-01-17T02:32:43.278Z,97200.02
2023-01-17T02:35:20.381Z,97200.23
2023-01-17T02:37:59.439Z,97202.43
2023-01-17T02:40:36.671Z,97202.96
2023-01-17T02:43:11.676Z,97205.41
2023-01-17T02:45:42.387Z,97214.17
2023-01-17T02:48:16.117Z,97204.39
2023-01-17T02:51:16.980Z,97209.66
2023-01-17T02:54:01.822Z,97215.94
2023-01-17T02:56:45.248Z,97217.33
2023-01-17T02:59:28.264Z,97224.55
2023-01-17T03:02:11.013Z,97224.75
2023-01-17T03:04:49.895Z,97231.59
2023-01-17T03:07:23.818Z,97236.11
2023-01-17T03:09:59.874Z,97248.85
2023-01-17T03:12:32.441Z,97246.70
2023-01-17T03:15:02.799Z,97251.92
2023-01-17T03:17:35.134Z,97255.41
2023-01-17T03:20:05.998Z,97261.82
2023-01-17T03:22:36.325Z,97263.25
2023-01-17T03:25:07.687Z,97264.38
2023-01-17T03:27:38.407Z,97268.85
2023-01-17T03:30:11.309Z,97267.42
2023-01-17T03:32:42.467Z,97268.27
2023-01-17T03:35:12.984Z,97277.00
2023-01-17T03:37:43.746Z,97284.67
2023-01-17T03:40:14.779Z,97283.58
2023-01-17T03:42:45.332Z,97287.78
2023-01-17T03:45:15.966Z,97287.58
2023-01-17T03:47:46.844Z,97289.02
2023-01-17T03:50:17.976Z,97291.64
2023-01-17T03:52:48.781Z,97297.27
2023-01-17T03:55:19.267Z,97302.52
2023-01-17T03:57:49.594Z,97302.34
2023-01-17T04:00:21.814Z,97310.96
2023-01-17T04:02:52.371Z,97320.90
2023-01-17T04:05:22.697Z,97324.73
2023-01-17T04:07:53.410Z,97323.82
2023-01-17T04:10:23.768Z,97321.30
2023-01-17T04:12:54.084Z,97321.23
2023-01-17T04:15:24.404Z,97327.29
2023-01-17T04:17:54.886Z,97324.80
2023-01-17T04:20:32.803Z,97326.04
2023-01-17T04:23:03.443Z,97330.45
2023-01-17T04:25:34.611Z,97341.75
2023-01-17T04:28:05.883Z,97333.30
2023-01-17T04:30:36.265Z,97340.34
2023-01-17T04:33:06.812Z,97342.00
2023-01-17T04:35:37.185Z,97344.12
2023-01-17T04:38:07.455Z,97348.40
2023-01-17T04:40:37.793Z,97344.04
2023-01-17T04:43:08.096Z,97344.65
2023-01-17T04:45:39.273Z,97341.75
2023-01-17T04:48:12.489Z,97342.55
2023-01-17T04:50:42.885Z,97339.90
2023-01-17T04:53:14.060Z,97344.67
2023-01-17T04:55:47.494Z,97351.30
2023-01-17T04:58:18.102Z,97360.67
2023-01-17T05:00:50.968Z,97365.23
2023-01-17T05:03:22.684Z,97366.27
2023-01-17T05:05:53.314Z,97366.15
2023-01-17T05:08:23.744Z,97372.75
2023-01-17T05:10:54.189Z,97370.83
2023-01-17T05:13:24.905Z,97371.95
2023-01-17T05:15:56.961Z,97376.80
2023-01-17T05:18:27.637Z,97383.33
2023-01-17T05:21:04.173Z,97385.05
2023-01-17T05:23:34.588Z,97392.66
2023-01-17T05:26:04.899Z,97397.58
2023-01-17T05:28:36.341Z,97397.56
2023-01-17T05:31:07.487Z,97409.89
2023-01-17T05:33:38.361Z,97413.39
2023-01-17T05:36:10.438Z,97423.23
2023-01-17T05:38:40.774Z,97428.10
2023-01-17T05:41:11.283Z,97433.06
2023-01-17T05:43:42.195Z,97438.77
2023-01-17T05:46:13.232Z,97441.13
2023-01-17T05:48:43.547Z,97449.66
2023-01-17T05:51:14.675Z,97455.23
2023-01-17T05:53:45.543Z,97459.89
2023-01-17T05:56:15.931Z,97465.84
2023-01-17T05:58:46.300Z,97470.97
2023-01-17T06:01:17.718Z,97479.83
2023-01-17T06:03:48.841Z,97481.30
2023-01-17T06:06:19.505Z,97495.55
2023-01-17T06:08:49.944Z,97503.39
2023-01-17T06:11:20.283Z,97508.84
2023-01-17T06:13:51.940Z,97512.38
2023-01-17T06:16:22.663Z,97526.71
2023-01-17T06:18:54.127Z,97528.31
2023-01-17T06:21:24.840Z,97544.04
2023-01-17T06:23:57.173Z,97554.55
2023-01-17T06:26:27.598Z,97554.13
2023-01-17T06:28:57.891Z,97562.45
2023-01-17T06:31:28.699Z,97565.39
2023-01-17T06:34:02.593Z,97568.66
2023-01-17T06:36:33.676Z,97574.42
2023-01-17T06:39:04.076Z,97585.91
2023-01-17T06:41:34.467Z,97592.38
2023-01-17T06:44:05.220Z,97595.77
2023-01-17T06:46:36.036Z,97605.12
2023-01-17T06:49:06.602Z,97606.97
2023-01-17T06:51:36.988Z,97613.45
2023-01-17T06:54:07.551Z,97626.03
2023-01-17T06:56:38.418Z,97635.84
2023-01-17T06:59:09.470Z,97649.73
2023-01-17T07:01:39.850Z,97653.33
2023-01-17T07:04:10.364Z,97655.41
2023-01-17T07:06:40.763Z,97659.88
2023-01-17T07:09:11.321Z,97660.50
2023-01-17T07:11:41.888Z,97658.41
2023-01-17T07:14:16.637Z,97659.84
2023-01-17T07:16:50.035Z,97663.42
2023-01-17T07:19:20.347Z,97663.13
2023-01-17T07:21:53.231Z,97666.42
2023-01-17T07:24:24.262Z,97669.25
2023-01-17T07:26:54.701Z,97678.91
2023-01-17T07:29:25.335Z,97685.27
2023-01-17T07:31:56.159Z,97685.35
2023-01-17T07:34:26.863Z,97691.11
2023-01-17T07:36:57.944Z,97697.26
2023-01-17T07:39:28.996Z,97708.54
2023-01-17T07:41:59.915Z,97711.89
2023-01-17T07:44:30.648Z,97720.04
2023-01-17T07:47:01.010Z,97720.16
2023-01-17T07:49:31.319Z,97720.64
2023-01-17T07:52:01.638Z,97726.06
2023-01-17T07:54:31.987Z,97722.10
2023-01-17T07:57:02.628Z,97719.14
2023-01-17T07:59:34.391Z,97716.95
2023-01-17T08:02:05.021Z,97721.48
2023-01-17T08:04:36.134Z,97727.60
2023-01-17T08:07:06.476Z,97728.52
2023-01-17T08:09:37.107Z,97733.33
2023-01-17T08:12:08.434Z,97737.95
2023-01-17T08:14:38.796Z,97736.55
2023-01-17T08:17:11.846Z,97745.25
2023-01-17T08:19:43.305Z,97753.58
2023-01-17T08:22:14.026Z,97754.63
2023-01-17T08:24:45.477Z,97760.73
2023-01-17T08:27:15.811Z,97765.81
2023-01-17T08:29:48.325Z,97773.11
2023-01-17T08:32:19.934Z,97778.02
2023-01-17T08:34:50.516Z,97784.73
2023-01-17T08:37:20.774Z,97789.70
2023-01-17T08:39:51.250Z,97788.48
2023-01-17T08:42:21.556Z,97800.36
2023-01-17T08:44:51.897Z,97804.22
2023-01-17T08:47:22.524Z,97810.29
2023-01-17T08:49:53.110Z,97815.56
2023-01-17T08:52:23.474Z,97817.96
2023-01-17T08:54:54.277Z,97821.70
2023-01-17T08:57:25.030Z,97822.63
2023-01-17T08:59:55.744Z,97820.95
2023-01-17T09:02:26.092Z,97824.95
2023-01-17T09:04:56.766Z,97829.60
2023-01-17T09:07:27.195Z,97827.29
2023-01-17T09:09:57.587Z,97833.85
2023-01-17T09:12:27.973Z,97839.05
2023-01-17T09:14:58.722Z,97839.55
2023-01-17T09:17:29.608Z,97845.20
2023-01-17T09:20:00.278Z,97852.44
2023-01-17T09:22:31.050Z,97852.67
2023-01-17T09:25:01.375Z,97856.40
2023-01-17T09:27:31.696Z,97857.59
2023-01-17T09:30:02.400Z,97857.68
2023-01-17T09:32:32.749Z,97858.19
2023-01-17T09:35:05.261Z,97866.86
2023-01-17T09:37:35.684Z,97870.55
2023-01-17T09:40:07.870Z,97871.76
2023-01-17T09:42:41.189Z,97873.54
2023-01-17T09:45:19.018Z,97879.36
2023-01-17T09:47:53.027Z,97876.14
2023-01-17T09:50:38.314Z,97882.48
2023-01-17T09:53:15.580Z,97877.61
2023-01-17T09:55:52.801Z,97885.70
2023-01-17T09:58:35.348Z,97892.30
2023-01-17T10:01:15.727Z,97890.77
2023-01-17T10:03:58.746Z,97893.20
2023-01-17T10:06:44.019Z,97894.02
2023-01-17T10:09:48.252Z,97897.66
2023-01-17T10:12:28.353Z,97899.56
2023-01-17T10:15:17.552Z,97902.32
2023-01-17T10:17:57.720Z,97904.00
2023-01-17T10:20:45.882Z,97909.52
2023-01-17T10:23:52.412Z,97906.00
2023-01-17T10:26:25.748Z,97907.20
2023-01-17T10:29:01.166Z,97908.98
2023-01-17T10:31:37.167Z,97912.41
2023-01-17T10:34:16.171Z,97906.55
2023-01-17T10:36:50.791Z,97911.58
2023-01-17T10:39:23.889Z,97909.45
2023-01-17T10:41:58.993Z,97915.16
2023-01-17T10:44:36.379Z,97916.92
2023-01-17T10:47:14.034Z,97919.75
2023-01-17T10:49:48.926Z,97919.52
2023-01-17T10:52:33.037Z,97920.80
2023-01-17T10:55:20.693Z,97924.52
2023-01-17T10:57:52.079Z,97924.90
2023-01-17T11:00:47.428Z,97925.80
2023-01-17T11:03:20.682Z,97929.19
2023-01-17T11:06:17.542Z,97928.89
2023-01-17T11:08:56.328Z,97928.05
2023-01-17T11:11:30.885Z,97922.41
2023-01-17T11:14:05.671Z,97925.70
2023-01-17T11:16:37.297Z,97923.01
2023-01-17T11:19:16.250Z,97929.14
2023-01-17T11:21:55.956Z,97927.97
2023-01-17T11:24:34.193Z,97931.42
2023-01-17T11:27:04.874Z,97928.53
2023-01-17T11:29:38.899Z,97930.91
2023-01-17T11:32:29.754Z,97929.69
2023-01-17T11:35:21.223Z,97931.83
2023-01-17T11:37:54.225Z,97935.21
2023-01-17T11:40:29.169Z,97936.20
2023-01-17T11:43:19.486Z,97936.89
2023-01-17T11:46:03.632Z,97935.73
2023-01-17T11:48:38.930Z,97939.77
2023-01-17T11:51:22.353Z,97942.90
2023-01-17T11:53:54.104Z,97941.95
2023-01-17T11:56:34.347Z,97946.67
2023-01-17T11:59:27.530Z,97949.13
2023-01-17T12:02:33.571Z,97951.57
2023-01-17T12:05:26.433Z,97948.72
2023-01-17T12:08:05.567Z,97948.77
2023-01-17T12:10:46.451Z,97951.76
2023-01-17T12:13:44.766Z,97944.59
2023-01-17T12:16:28.212Z,97949.63
2023-01-17T12:19:06.962Z,97950.69
2023-01-17T12:21:49.997Z,97949.18
2023-01-17T12:24:37.911Z,97944.30
2023-01-17T12:27:11.130Z,97948.52
2023-01-17T12:29:51.225Z,97945.79
2023-01-17T12:32:42.829Z,97949.96
2023-01-17T12:35:17.928Z,97946.96
2023-01-17T12:38:04.271Z,97952.51
2023-01-17T12:40:42.125Z,97943.55
2023-01-17T12:43:20.579Z,97942.02
2023-01-17T12:45:54.541Z,97942.86
2023-01-17T12:48:29.589Z,97945.23
2023-01-17T12:51:06.860Z,97949.14
2023-01-17T12:53:47.812Z,97953.94
2023-01-17T12:56:25.232Z,97963.49
2023-01-17T12:59:02.321Z,97963.75
2023-01-17T13:01:39.986Z,97965.54
2023-01-17T13:04:16.197Z,97967.09
2023-01-17T13:07:01.571Z,97973.13
2023-01-17T13:09:36.111Z,97975.73
2023-01-17T13:12:11.323Z,97977.17
2023-01-17T13:14:41.699Z,97978.62
2023-01-17T13:17:27.852Z,97984.36
2023-01-17T13:20:04.192Z,97983.64
2023-01-17T13:22:39.358Z,97984.77
2023-01-17T13:25:23.933Z,97986.93
2023-01-17T13:28:16.869Z,97988.02
2023-01-17T13:31:18.827Z,97991.84
2023-01-17T13:34:04.318Z,97993.86
2023-01-17T13:36:46.508Z,97997.08
2023-01-17T13:39:40.971Z,97999.46
2023-01-17T13:42:20.127Z,98006.31
2023-01-17T13:44:50.954Z,98008.96
2023-01-17T13:47:42.477Z,98010.20
2023-01-17T13:50:50.182Z,98014.11
2023-01-17T13:53:54.961Z,98023.50
2023-01-17T13:56:31.627Z,98022.93
2023-01-17T13:59:19.630Z,98025.15
2023-01-17T14:01:55.268Z,98033.39
2023-01-17T14:04:47.414Z,98035.11
2023-01-17T14:07:27.269Z,98034.91
2023-01-17T14:09:57.902Z,98040.08
2023-01-17T14:12:34.057Z,98038.51
2023-01-17T14:15:06.832Z,98041.61
2023-01-17T14:17:52.160Z,98041.80
2023-01-17T14:20:50.604Z,98042.21
2023-01-17T14:24:07.182Z,98045.18
2023-01-17T14:26:44.689Z,98052.15
2023-01-17T14:29:49.822Z,98055.45
2023-01-17T14:32:23.054Z,98057.24
2023-01-17T14:34:55.296Z,98059.13
2023-01-17T14:37:39.371Z,98065.91
2023-01-17T14:40:26.310Z,98060.14
2023-01-17T14:43:02.690Z,98068.34
2023-01-17T14:45:35.000Z,98072.23
2023-01-17T14:48:07.787Z,98074.58
2023-01-17T14:50:42.714Z,98078.42
2023-01-17T14:53:21.985Z,98076.84
2023-01-17T14:55:58.822Z,98078.11
2023-01-17T14:58:32.327Z,98079.30
2023-01-17T15:01:06.597Z,98079.23
2023-01-17T15:03:45.082Z,98082.98
2023-01-17T15:06:20.093Z,98078.90
2023-01-17T15:08:53.892Z,98079.41
2023-01-17T15:11:26.980Z,98081.55
2023-01-17T15:14:00.156Z,98084.52
2023-01-17T15:16:33.657Z,98083.66
2023-01-17T15:19:11.181Z,98084.27
2023-01-17T15:21:43.999Z,98083.34
2023-01-17T15:24:20.751Z,98086.73
2023-01-17T15:26:51.997Z,98087.42
2023-01-17T15:29:27.110Z,98082.77
2023-01-17T15:31:59.421Z,98083.94
2023-01-17T15:34:31.962Z,98086.64
2023-01-17T15:37:04.860Z,98090.48
2023-01-17T15:39:38.493Z,98094.55
2023-01-17T15:42:27.105Z,98088.77
2023-01-17T15:45:01.522Z,98092.42
2023-01-17T15:47:34.119Z,98094.08
2023-01-17T15:50:39.574Z,98097.05
2023-01-17T15:53:32.417Z,98095.98
2023-01-17T15:56:19.822Z,98095.63
2023-01-17T15:58:51.081Z,98099.62
2023-01-17T16:01:28.585Z,98099.25
2023-01-17T16:03:59.279Z,98099.52
2023-01-17T16:06:45.622Z,98101.82
2023-01-17T16:09:23.978Z,98100.59
2023-01-17T16:11:54.617Z,98104.82
2023-01-17T16:14:25.360Z,98114.00
2023-01-17T16:16:56.001Z,98112.86
2023-01-17T16:19:26.828Z,98118.04
2023-01-17T16:22:02.609Z,98116.11
2023-01-17T16:24:33.415Z,98116.02
2023-01-17T16:27:04.359Z,98116.00
2023-01-17T16:29:35.736Z,98121.14
2023-01-17T16:32:08.650Z,98117.36
2023-01-17T16:34:39.051Z,98119.37
2023-01-17T16:37:10.129Z,98120.02
2023-01-17T16:39:41.457Z,98121.16
2023-01-17T16:42:13.573Z,98123.94
2023-01-17T16:44:44.269Z,98127.94
2023-01-17T16:47:14.808Z,98126.63
2023-01-17T16:49:45.221Z,98128.75
2023-01-17T16:52:16.067Z,98130.75
2023-01-17T16:54:46.343Z,98131.00
2023-01-17T16:57:17.033Z,98132.29
2023-01-17T16:59:50.857Z,98139.59
2023-01-17T17:02:23.061Z,98138.13
2023-01-17T17:04:53.971Z,98140.59
2023-01-17T17:07:24.907Z,98141.23
2023-01-17T17:09:55.279Z,98141.02
2023-01-17T17:12:25.897Z,98144.08
2023-01-17T17:14:56.253Z,98147.13
2023-01-17T17:17:26.609Z,98154.50
2023-01-17T17:19:58.640Z,98152.18
2023-01-17T17:22:29.303Z,98150.04
2023-01-17T17:24:59.701Z,98154.56
2023-01-17T17:27:31.132Z,98157.61
2023-01-17T17:30:01.798Z,98158.98
2023-01-17T17:32:33.425Z,98159.37
2023-01-17T17:35:03.989Z,98166.03
2023-01-17T17:37:34.635Z,98174.13
2023-01-17T17:40:05.547Z,98176.58
2023-01-17T17:42:36.715Z,98181.75
2023-01-17T17:45:08.389Z,98186.20
2023-01-17T17:47:38.714Z,98188.19
2023-01-17T17:50:11.307Z,98188.11
2023-01-17T17:52:44.103Z,98187.73
2023-01-17T17:55:19.018Z,98189.23
2023-01-17T17:57:49.501Z,98194.67
2023-01-17T18:00:23.009Z,98190.02
2023-01-17T18:02:53.789Z,98186.05
2023-01-17T18:05:24.122Z,98186.21
2023-01-17T18:07:55.245Z,98185.02
2023-01-17T18:10:26.198Z,98184.12
2023-01-17T18:12:56.580Z,98183.64
2023-01-17T18:15:27.128Z,98185.19
2023-01-17T18:17:57.887Z,98185.41
2023-01-17T18:20:28.362Z,98187.19
2023-01-17T18:22:58.727Z,98189.13
2023-01-17T18:25:29.148Z,98191.13
2023-01-17T18:27:59.755Z,98186.53
2023-01-17T18:30:38.800Z,98192.30
2023-01-17T18:33:10.685Z,98192.27
2023-01-17T18:35:43.719Z,98195.26
2023-01-17T18:38:14.381Z,98195.59
2023-01-17T18:40:44.871Z,98196.58
2023-01-17T18:43:15.777Z,98201.19
2023-01-17T18:45:53.222Z,98207.08
2023-01-17T18:48:25.329Z,98213.66
2023-01-17T18:51:01.040Z,98210.89
2023-01-17T18:53:33.037Z,98210.27
2023-01-17T18:56:06.275Z,98211.79
2023-01-17T18:58:39.626Z,98211.85
2023-01-17T19:01:13.197Z,98211.56
2023-01-17T19:03:46.424Z,98215.20
2023-01-17T19:06:19.415Z,98217.98
2023-01-17T19:08:51.654Z,98218.39
2023-01-17T19:11:23.321Z,98215.62
2023-01-17T19:13:53.926Z,98215.29
2023-01-17T19:16:27.901Z,98220.21
2023-01-17T19:19:02.586Z,98227.84
2023-01-17T19:21:33.089Z,98226.55
2023-01-17T19:24:04.151Z,98227.09
2023-01-17T19:26:34.863Z,98228.33
2023-01-17T19:29:06.693Z,98230.93
2023-01-17T19:31:42.451Z,98231.34
2023-01-17T19:34:14.699Z,98235.59
2023-01-17T19:36:45.344Z,98232.89
2023-01-17T19:39:16.573Z,98232.98
2023-01-17T19:41:47.489Z,98229.79
2023-01-17T19:44:17.857Z,98225.30
2023-01-17T19:46:48.836Z,98227.50
2023-01-17T19:49:23.890Z,98228.78
2023-01-17T19:51:54.952Z,98228.08
2023-01-17T19:54:25.794Z,98233.98
2023-01-17T19:56:56.438Z,98236.22
2023-01-17T19:59:27.401Z,98242.77
2023-01-17T20:02:17.518Z,98244.59
2023-01-17T20:05:03.316Z,98250.09
2023-01-17T20:07:35.189Z,98256.65
2023-01-17T20:10:11.185Z,98258.92
2023-01-17T20:12:44.874Z,98263.85
2023-01-17T20:15:19.774Z,98267.28
2023-01-17T20:17:51.935Z,98274.16
2023-01-17T20:20:22.704Z,98278.78
2023-01-17T20:22:55.732Z,98286.06
2023-01-17T20:25:28.694Z,98292.02
2023-01-17T20:28:04.941Z,98297.91
2023-01-17T20:30:38.449Z,98297.88
2023-01-17T20:33:13.949Z,98299.68
2023-01-17T20:35:44.421Z,98299.06
2023-01-17T20:38:15.081Z,98300.45
2023-01-17T20:41:03.047Z,98294.83
2023-01-17T20:43:34.991Z,98299.31
2023-01-17T20:46:13.313Z,98296.63
2023-01-17T20:48:48.476Z,98297.66
2023-01-17T20:51:20.162Z,98295.80
2023-01-17T20:53:56.090Z,98297.66
2023-01-17T20:56:37.639Z,98302.08
2023-01-17T20:59:17.041Z,98298.72
2023-01-17T21:01:48.345Z,98297.06
2023-01-17T21:04:28.601Z,98298.51
2023-01-17T21:07:03.156Z,98300.20
2023-01-17T21:09:34.315Z,98295.94
2023-01-17T21:12:16.371Z,98294.30
2023-01-17T21:15:11.444Z,98297.52
2023-01-17T21:17:47.342Z,98297.45
2023-01-17T21:20:19.397Z,98304.23
2023-01-17T21:22:49.982Z,98308.77
2023-01-17T21:25:26.961Z,98311.23
2023-01-17T21:27:59.638Z,98319.45
2023-01-17T21:30:30.100Z,98325.19
2023-01-17T21:33:07.213Z,98325.98
2023-01-17T21:35:46.087Z,98322.38
2023-01-17T21:38:23.530Z,98323.52
2023-01-17T21:40:58.885Z,98326.64
2023-01-17T21:43:29.881Z,98329.67
2023-01-17T21:46:05.493Z,98334.08
2023-01-17T21:48:37.079Z,98340.10
2023-01-17T21:51:09.535Z,98344.39
2023-01-17T21:53:43.457Z,98348.27
2023-01-17T21:56:33.260Z,98348.27
2023-01-17T21:59:04.323Z,98352.20
2023-01-17T22:01:35.611Z,98361.91
2023-01-17T22:04:07.311Z,98366.71
2023-01-17T22:06:39.178Z,98371.25
2023-01-17T22:09:09.669Z,98368.61
2023-01-17T22:11:40.299Z,98374.55
2023-01-17T22:14:11.055Z,98373.72
2023-01-17T22:16:41.849Z,98372.03
2023-01-17T22:19:13.003Z,98376.54
2023-01-17T22:21:44.237Z,98378.88
2023-01-17T22:24:16.743Z,98383.74
2023-01-17T22:26:47.083Z,98383.20
2023-01-17T22:29:18.898Z,98383.14
2023-01-17T22:31:49.328Z,98386.19
2023-01-17T22:34:20.074Z,98385.40
2023-01-17T22:36:50.736Z,98386.50
2023-01-17T22:39:21.823Z,98390.34
2023-01-17T22:41:52.516Z,98395.92
2023-01-17T22:44:23.177Z,98402.02
2023-01-17T22:46:53.566Z,98399.64
2023-01-17T22:49:24.392Z,98407.56
2023-01-17T22:51:54.862Z,98406.16
2023-01-17T22:54:25.328Z,98408.52
2023-01-17T22:56:55.653Z,98405.43
2023-01-17T22:59:25.982Z,98409.11
2023-01-17T23:01:56.352Z,98409.28
2023-01-17T23:04:28.240Z,98410.40
2023-01-17T23:06:58.685Z,98409.39
2023-01-17T23:09:29.430Z,98407.83
2023-01-17T23:12:00.369Z,98408.14
2023-01-17T23:14:52.305Z,98404.70
2023-01-17T23:17:42.269Z,98408.11
2023-01-17T23:20:14.822Z,98417.61
2023-01-17T23:22:45.179Z,98412.70
2023-01-17T23:25:15.994Z,98409.96
2023-01-17T23:28:05.864Z,98411.20
2023-01-17T23:30:40.227Z,98407.33
2023-01-17T23:33:12.228Z,98403.19
2023-01-17T23:35:45.507Z,98400.87
2023-01-17T23:38:34.247Z,98402.54
2023-01-17T23:41:25.140Z,98398.38
2023-01-17T23:43:57.224Z,98400.85
2023-01-17T23:46:30.071Z,98399.61
2023-01-17T23:49:00.990Z,98394.42
2023-01-17T23:51:31.777Z,98393.05
2023-01-17T23:54:05.295Z,98389.80
2023-01-17T23:56:35.794Z,98385.50
2023-01-17T23:59:06.709Z,98386.92
